West Granby, Connecticut
Current Conditions -  °F | °C
As of 4:51 PM on Sunday 21 Dec 2014 (Local Time) from KBDL Reporting Station
Overcast Overcast  
Wind Chill: 30°   Ceiling: 1700
Heat Index: 34°   Visibility: 10mi
Dew Point: 29°   Wind: 5mph
Humidity: 82%   Direction: 350°N
Pressure: 30.3"   Gusts: NA
Location:  41.96°N, 72.84°W
Report Text: KBDL 212151Z 35004KT 10SM FEW010 OVC017 01/M02 A3030 RMK AO2 SNE32 SLP262 P0000 T00111017 $
Loading
Personal Weather Stations






























Interactive Weather Map New forecast layout! Learn more

10-Day Weather Forecast

Advertisements
Track Severe Weather on mobile